Lysander, NY

11:11 AM EST on January 28, 2015 (GMT -0500)
Fairmount Hill's | Change Station
CLOSE
Current Station
Personal Weather Station
Location: Fairmount, NY
Elevation: 641 ft
Nearby Weather Stations

Elev 641 ft 43.04 °N, 76.25 °W | Updated 7 seconds ago

Clear
Clear
17.0 °F
Feels Like 8 °F
N
5.9
Wind Variable Wind from West
Gusts 9.8 mph

Today
High -- | Low -- °F
--% Chance of Precip.
Yesterday
High -- | Low -- °F
Precip. -- in
7:25 AM 5:11 PM
Waxing Gibbous, 66% visible
Pressure 30.25 in
Visibility 10.0 miles
Clouds Few 3000 ft
Few 20000 ft
Windchill 8 °F
Dew Point -1 °F
Humidity 44%
Rainfall 0.00 in
Snow Depth Not available.
UV 2 out of 12
Pollen .10 out of 12
Air Quality Not available.
Flu Activity Not available.
METAR KSYR 281554Z 25006KT 10SM FEW030 FEW200 M11/M16 A3023 RMK AO2 SLP244 T11061161 $

More Conditions Fewer Conditions

Pressure 30.25 in
Visibility 10.0 miles
Clouds Few 3000 ft
Few 20000 ft
Windchill 8 °F
Dew Point -1 °F
Humidity 44%
Rainfall 0.00 in
Snow Depth Not available.
UV 2 out of 12
Pollen .10 out of 12
Air Quality Not available.
Flu Activity Not available.
METAR KSYR 281554Z 25006KT 10SM FEW030 FEW200 M11/M16 A3023 RMK AO2 SLP244 T11061161 $

More Conditions Fewer Conditions

10-Day Weather Forecast

Almanac

Astronomy

Jan. 28, 2015 Rise Set
Actual Time
Civil Twilight
Nautical Twilight
Astronomical Twilight
Moon
Length of Visible Light
Length of Day
Tomorrow will be .
, % of the Moon is Illuminated

Today's Extremes

State Highs State Lows

Community

WunderPhotos

Upload Photos

1,791,189 photos uploaded!

WunderBlogs® & News

Nearby

Air Quality

  Air Quality AQ Index Pollutant
Not available.

Snow Depth

Station Depth Elevation

Earthquake Activity

City Distance Mag. Time & Date
Minimum magnitude displayed is 2.5.

Coastal Water Temperatures

Place Temperature

Nearby Weather Stations